RJFZ(METAR)
10/21 04:00
METAR RJFZ 201900Z 23005KT 9999 FEW030 BKN/// 11/10 Q1021 RMK 1CU030
A3017=
戻る
トップページへ戻る
IMOC Co,.Ltd.